sensor_id;sensor_type;location;lat;lon;timestamp;pressure;altitude;pressure_sealevel;temperature;humidity
66524;BME280;53350;52.210;5.160;2023-04-01T00:01:36;99075.31;;;12.49;81.52
66524;BME280;53350;52.210;5.160;2023-04-01T00:04:03;99071.19;;;12.45;81.48
66524;BME280;53350;52.210;5.160;2023-04-01T00:06:29;99079.75;;;12.45;81.76
66524;BME280;53350;52.210;5.160;2023-04-01T00:08:56;99068.53;;;12.46;81.75
66524;BME280;53350;52.210;5.160;2023-04-01T00:11:22;99078.31;;;12.40;81.92
66524;BME280;53350;52.210;5.160;2023-04-01T00:13:50;99089.34;;;12.43;81.64
66524;BME280;53350;52.210;5.160;2023-04-01T00:16:17;99082.41;;;12.44;81.71
66524;BME280;53350;52.210;5.160;2023-04-01T00:18:43;99079.84;;;12.44;81.69
66524;BME280;53350;52.210;5.160;2023-04-01T00:21:12;99079.91;;;12.42;81.62
66524;BME280;53350;52.210;5.160;2023-04-01T00:23:39;99086.06;;;12.40;81.68
66524;BME280;53350;52.210;5.160;2023-04-01T00:26:05;99087.81;;;12.39;81.61
66524;BME280;53350;52.210;5.160;2023-04-01T00:28:34;99083.47;;;12.40;81.64
66524;BME280;53350;52.210;5.160;2023-04-01T00:31:05;99087.00;;;12.39;81.57
66524;BME280;53350;52.210;5.160;2023-04-01T00:33:32;99081.91;;;12.37;81.36
66524;BME280;53350;52.210;5.160;2023-04-01T00:36:06;99089.66;;;12.37;81.39
66524;BME280;53350;52.210;5.160;2023-04-01T00:38:33;99097.38;;;12.37;81.62
66524;BME280;53350;52.210;5.160;2023-04-01T00:41:00;99081.25;;;12.32;81.61
66524;BME280;53350;52.210;5.160;2023-04-01T00:43:26;99092.66;;;12.28;81.65
66524;BME280;53350;52.210;5.160;2023-04-01T00:45:53;99093.66;;;12.25;81.92
66524;BME280;53350;52.210;5.160;2023-04-01T00:48:22;99093.66;;;12.25;81.77
66524;BME280;53350;52.210;5.160;2023-04-01T00:50:52;99097.34;;;12.20;81.79
66524;BME280;53350;52.210;5.160;2023-04-01T00:53:20;99092.31;;;12.16;82.19
66524;BME280;53350;52.210;5.160;2023-04-01T00:55:52;99093.09;;;12.18;82.26
66524;BME280;53350;52.210;5.160;2023-04-01T00:58:21;99094.63;;;12.23;81.99
66524;BME280;53350;52.210;5.160;2023-04-01T01:00:50;99104.94;;;12.23;81.97
66524;BME280;53350;52.210;5.160;2023-04-01T01:03:17;99101.44;;;12.24;82.03
66524;BME280;53350;52.210;5.160;2023-04-01T01:05:58;99102.22;;;12.26;81.43
66524;BME280;53350;52.210;5.160;2023-04-01T01:08:47;99102.38;;;12.23;81.68
66524;BME280;53350;52.210;5.160;2023-04-01T01:11:22;99090.66;;;12.15;81.80
66524;BME280;53350;52.210;5.160;2023-04-01T01:13:57;99107.69;;;12.20;81.88
66524;BME280;53350;52.210;5.160;2023-04-01T01:16:28;99100.00;;;12.18;81.58
66524;BME280;53350;52.210;5.160;2023-04-01T01:19:02;99103.56;;;12.15;81.84
66524;BME280;53350;52.210;5.160;2023-04-01T01:24:27;99105.44;;;12.12;81.89
66524;BME280;53350;52.210;5.160;2023-04-01T01:27:00;99106.69;;;12.03;82.28
66524;BME280;53350;52.210;5.160;2023-04-01T01:32:38;99104.03;;;12.05;82.07
66524;BME280;53350;52.210;5.160;2023-04-01T01:35:17;99110.06;;;12.05;81.48
66524;BME280;53350;52.210;5.160;2023-04-01T01:37:45;99112.84;;;12.00;81.50
66524;BME280;53350;52.210;5.160;2023-04-01T01:40:13;99105.25;;;11.97;81.66
66524;BME280;53350;52.210;5.160;2023-04-01T01:42:44;99109.66;;;11.95;81.62
66524;BME280;53350;52.210;5.160;2023-04-01T01:45:15;99108.81;;;11.95;81.92
66524;BME280;53350;52.210;5.160;2023-04-01T01:47:43;99110.41;;;11.97;81.94
66524;BME280;53350;52.210;5.160;2023-04-01T01:50:11;99115.47;;;11.99;82.08
66524;BME280;53350;52.210;5.160;2023-04-01T01:52:40;99113.75;;;11.99;82.11
66524;BME280;53350;52.210;5.160;2023-04-01T01:55:24;99119.75;;;12.00;82.03
66524;BME280;53350;52.210;5.160;2023-04-01T01:57:52;99116.34;;;11.99;81.77
66524;BME280;53350;52.210;5.160;2023-04-01T02:00:19;99113.91;;;11.96;81.73
66524;BME280;53350;52.210;5.160;2023-04-01T02:02:47;99119.91;;;11.97;81.85
66524;BME280;53350;52.210;5.160;2023-04-01T02:05:17;99116.56;;;11.95;82.01
66524;BME280;53350;52.210;5.160;2023-04-01T02:07:48;99120.03;;;11.94;81.75
66524;BME280;53350;52.210;5.160;2023-04-01T02:10:17;99126.06;;;11.93;81.70
66524;BME280;53350;52.210;5.160;2023-04-01T02:12:45;99126.97;;;11.92;81.65
66524;BME280;53350;52.210;5.160;2023-04-01T02:15:13;99138.13;;;11.92;81.63
66524;BME280;53350;52.210;5.160;2023-04-01T02:17:43;99145.22;;;11.87;81.46
66524;BME280;53350;52.210;5.160;2023-04-01T02:20:13;99127.31;;;11.84;81.75
66524;BME280;53350;52.210;5.160;2023-04-01T02:22:44;99124.88;;;11.81;81.76
66524;BME280;53350;52.210;5.160;2023-04-01T02:25:16;99144.56;;;11.83;81.88
66524;BME280;53350;52.210;5.160;2023-04-01T02:27:44;99147.13;;;11.83;82.32
66524;BME280;53350;52.210;5.160;2023-04-01T02:30:12;99145.31;;;11.86;82.38
66524;BME280;53350;52.210;5.160;2023-04-01T02:32:39;99147.06;;;11.85;82.16
66524;BME280;53350;52.210;5.160;2023-04-01T02:35:09;99150.47;;;11.86;82.07
66524;BME280;53350;52.210;5.160;2023-04-01T02:37:37;99146.16;;;11.86;82.24
66524;BME280;53350;52.210;5.160;2023-04-01T02:40:08;99150.53;;;11.84;82.27
66524;BME280;53350;52.210;5.160;2023-04-01T02:42:36;99152.50;;;11.79;82.66
66524;BME280;53350;52.210;5.160;2023-04-01T02:45:04;99150.38;;;11.68;82.56
66524;BME280;53350;52.210;5.160;2023-04-01T02:47:31;99166.44;;;11.75;83.07
66524;BME280;53350;52.210;5.160;2023-04-01T02:49:57;99161.28;;;11.75;82.96
66524;BME280;53350;52.210;5.160;2023-04-01T02:52:24;99167.47;;;11.71;83.11
66524;BME280;53350;52.210;5.160;2023-04-01T02:54:50;99162.31;;;11.71;83.08
66524;BME280;53350;52.210;5.160;2023-04-01T02:57:17;99178.69;;;11.70;83.43
66524;BME280;53350;52.210;5.160;2023-04-01T02:59:45;99173.00;;;11.61;83.47
66524;BME280;53350;52.210;5.160;2023-04-01T03:02:11;99175.59;;;11.61;83.95
66524;BME280;53350;52.210;5.160;2023-04-01T03:04:38;99183.22;;;11.64;84.13
66524;BME280;53350;52.210;5.160;2023-04-01T03:07:04;99189.00;;;11.70;83.99
66524;BME280;53350;52.210;5.160;2023-04-01T03:09:30;99185.47;;;11.72;83.96
66524;BME280;53350;52.210;5.160;2023-04-01T03:11:57;99191.38;;;11.74;83.83
66524;BME280;53350;52.210;5.160;2023-04-01T03:14:23;99195.56;;;11.77;83.85
66524;BME280;53350;52.210;5.160;2023-04-01T03:16:51;99201.44;;;11.80;83.94
66524;BME280;53350;52.210;5.160;2023-04-01T03:19:18;99196.00;;;11.87;83.69
66524;BME280;53350;52.210;5.160;2023-04-01T03:21:44;99214.91;;;11.87;83.73
66524;BME280;53350;52.210;5.160;2023-04-01T03:24:10;99207.94;;;11.89;83.66
66524;BME280;53350;52.210;5.160;2023-04-01T03:26:37;99216.38;;;11.93;83.44
66524;BME280;53350;52.210;5.160;2023-04-01T03:29:03;99217.19;;;11.95;83.49
66524;BME280;53350;52.210;5.160;2023-04-01T03:31:30;99214.47;;;11.98;83.57
66524;BME280;53350;52.210;5.160;2023-04-01T03:33:58;99220.38;;;12.00;83.42
66524;BME280;53350;52.210;5.160;2023-04-01T03:36:24;99223.88;;;11.99;83.55
66524;BME280;53350;52.210;5.160;2023-04-01T03:38:51;99221.28;;;11.99;83.48
66524;BME280;53350;52.210;5.160;2023-04-01T03:41:17;99228.91;;;12.02;83.52
66524;BME280;53350;52.210;5.160;2023-04-01T03:43:44;99227.91;;;12.05;83.52
66524;BME280;53350;52.210;5.160;2023-04-01T03:46:11;99233.81;;;12.08;83.45
66524;BME280;53350;52.210;5.160;2023-04-01T03:48:37;99229.41;;;12.10;83.25
66524;BME280;53350;52.210;5.160;2023-04-01T03:51:07;99242.31;;;12.10;83.36
66524;BME280;53350;52.210;5.160;2023-04-01T03:53:34;99247.59;;;12.07;82.93
66524;BME280;53350;52.210;5.160;2023-04-01T03:56:03;99242.84;;;11.98;83.80
66524;BME280;53350;52.210;5.160;2023-04-01T03:58:30;99249.91;;;11.93;83.60
66524;BME280;53350;52.210;5.160;2023-04-01T04:00:56;99254.53;;;11.86;84.28
66524;BME280;53350;52.210;5.160;2023-04-01T04:03:23;99261.41;;;11.86;84.19
66524;BME280;53350;52.210;5.160;2023-04-01T04:05:50;99257.34;;;11.80;84.51
66524;BME280;53350;52.210;5.160;2023-04-01T04:08:17;99265.81;;;11.83;84.26
66524;BME280;53350;52.210;5.160;2023-04-01T04:10:46;99276.06;;;11.85;84.42
66524;BME280;53350;52.210;5.160;2023-04-01T04:13:13;99276.69;;;11.90;84.33
66524;BME280;53350;52.210;5.160;2023-04-01T04:15:40;99285.78;;;11.78;84.85
66524;BME280;53350;52.210;5.160;2023-04-01T04:18:06;99290.25;;;11.75;84.63
66524;BME280;53350;52.210;5.160;2023-04-01T04:20:32;99291.28;;;11.71;85.07
66524;BME280;53350;52.210;5.160;2023-04-01T04:23:00;99296.25;;;11.75;84.72
66524;BME280;53350;52.210;5.160;2023-04-01T04:25:28;99298.06;;;11.73;84.74
66524;BME280;53350;52.210;5.160;2023-04-01T04:27:54;99299.16;;;11.68;85.23
66524;BME280;53350;52.210;5.160;2023-04-01T04:30:22;99299.78;;;11.73;85.02
66524;BME280;53350;52.210;5.160;2023-04-01T04:32:48;99309.97;;;11.76;84.98
66524;BME280;53350;52.210;5.160;2023-04-01T04:35:15;99315.03;;;11.79;84.65
66524;BME280;53350;52.210;5.160;2023-04-01T04:37:41;99318.44;;;11.79;84.68
66524;BME280;53350;52.210;5.160;2023-04-01T04:40:08;99323.53;;;11.81;84.69
66524;BME280;53350;52.210;5.160;2023-04-01T04:42:36;99328.63;;;11.82;84.62
66524;BME280;53350;52.210;5.160;2023-04-01T04:45:03;99325.22;;;11.82;84.62
66524;BME280;53350;52.210;5.160;2023-04-01T04:47:29;99330.16;;;11.87;84.32
66524;BME280;53350;52.210;5.160;2023-04-01T04:49:56;99340.50;;;11.87;84.42
66524;BME280;53350;52.210;5.160;2023-04-01T04:52:22;99342.28;;;11.84;84.58
66524;BME280;53350;52.210;5.160;2023-04-01T04:54:49;99343.13;;;11.85;84.51
66524;BME280;53350;52.210;5.160;2023-04-01T04:57:15;99349.19;;;11.84;84.39
66524;BME280;53350;52.210;5.160;2023-04-01T04:59:43;99345.50;;;11.90;84.44
66524;BME280;53350;52.210;5.160;2023-04-01T05:02:09;99364.28;;;11.95;84.35
66524;BME280;53350;52.210;5.160;2023-04-01T05:04:36;99357.97;;;12.00;84.25
66524;BME280;53350;52.210;5.160;2023-04-01T05:07:03;99371.53;;;12.06;83.96
66524;BME280;53350;52.210;5.160;2023-04-01T05:09:29;99375.03;;;12.05;83.95
66524;BME280;53350;52.210;5.160;2023-04-01T05:11:56;99379.28;;;12.06;83.82
66524;BME280;53350;52.210;5.160;2023-04-01T05:14:22;99384.53;;;12.04;83.72
66524;BME280;53350;52.210;5.160;2023-04-01T05:16:50;99388.78;;;12.05;83.79
66524;BME280;53350;52.210;5.160;2023-04-01T05:19:17;99393.03;;;12.06;83.72
66524;BME280;53350;52.210;5.160;2023-04-01T05:21:43;99392.97;;;12.08;83.66
66524;BME280;53350;52.210;5.160;2023-04-01T05:24:09;99394.66;;;12.09;83.46
66524;BME280;53350;52.210;5.160;2023-04-01T05:26:36;99413.53;;;12.09;83.48
66524;BME280;53350;52.210;5.160;2023-04-01T05:29:02;99404.34;;;12.04;83.41
66524;BME280;53350;52.210;5.160;2023-04-01T05:31:29;99402.44;;;12.07;83.63
66524;BME280;53350;52.210;5.160;2023-04-01T05:33:57;99409.31;;;12.08;83.58
66524;BME280;53350;52.210;5.160;2023-04-01T05:36:23;99418.59;;;12.12;83.49
66524;BME280;53350;52.210;5.160;2023-04-01T05:38:50;99418.59;;;12.12;83.28
66524;BME280;53350;52.210;5.160;2023-04-01T05:41:16;99431.31;;;12.17;83.15
66524;BME280;53350;52.210;5.160;2023-04-01T05:43:43;99424.31;;;12.19;83.09
66524;BME280;53350;52.210;5.160;2023-04-01T05:46:09;99435.38;;;12.23;82.70
66524;BME280;53350;52.210;5.160;2023-04-01T05:48:37;99436.34;;;12.20;83.00
66524;BME280;53350;52.210;5.160;2023-04-01T05:51:04;99436.53;;;12.15;82.99
66524;BME280;53350;52.210;5.160;2023-04-01T05:53:31;99438.19;;;12.16;82.93
66524;BME280;53350;52.210;5.160;2023-04-01T05:56:02;99436.53;;;12.15;82.79
66524;BME280;53350;52.210;5.160;2023-04-01T05:58:29;99448.66;;;12.13;83.03
66524;BME280;53350;52.210;5.160;2023-04-01T06:01:00;99446.13;;;12.12;83.10
66524;BME280;53350;52.210;5.160;2023-04-01T06:03:26;99449.63;;;12.11;83.09
66524;BME280;53350;52.210;5.160;2023-04-01T06:05:53;99451.50;;;12.07;83.21
66524;BME280;53350;52.210;5.160;2023-04-01T06:08:21;99443.22;;;11.99;83.28
66524;BME280;53350;52.210;5.160;2023-04-01T06:10:58;99454.25;;;12.03;83.43
66524;BME280;53350;52.210;5.160;2023-04-01T06:13:45;99457.81;;;12.00;83.65
66524;BME280;53350;52.210;5.160;2023-04-01T06:16:19;99462.06;;;12.01;83.67
66524;BME280;53350;52.210;5.160;2023-04-01T06:19:02;99475.03;;;11.99;83.61
66524;BME280;53350;52.210;5.160;2023-04-01T06:21:45;99487.09;;;11.99;83.74
66524;BME280;53350;52.210;5.160;2023-04-01T06:24:38;99487.44;;;11.90;84.33
66524;BME280;53350;52.210;5.160;2023-04-01T06:27:16;99491.91;;;11.84;84.17
66524;BME280;53350;52.210;5.160;2023-04-01T06:29:55;99501.59;;;11.79;84.32
66524;BME280;53350;52.210;5.160;2023-04-01T06:32:46;99499.25;;;11.73;84.66
66524;BME280;53350;52.210;5.160;2023-04-01T06:35:34;99520.03;;;11.69;84.97
66524;BME280;53350;52.210;5.160;2023-04-01T06:38:17;99518.69;;;11.82;84.93
66524;BME280;53350;52.210;5.160;2023-04-01T06:41:11;99518.50;;;11.87;84.48
66524;BME280;53350;52.210;5.160;2023-04-01T06:43:52;99522.66;;;11.91;84.72
66524;BME280;53350;52.210;5.160;2023-04-01T06:46:31;99530.31;;;11.94;84.73
66524;BME280;53350;52.210;5.160;2023-04-01T06:49:10;99538.97;;;11.91;84.59
66524;BME280;53350;52.210;5.160;2023-04-01T06:51:47;99538.97;;;11.91;84.59
66524;BME280;53350;52.210;5.160;2023-04-01T06:54:20;99542.38;;;11.92;84.58
66524;BME280;53350;52.210;5.160;2023-04-01T06:56:53;99544.19;;;11.90;84.98
66524;BME280;53350;52.210;5.160;2023-04-01T06:59:25;99546.06;;;11.86;85.29
66524;BME280;53350;52.210;5.160;2023-04-01T07:01:55;99549.72;;;11.80;85.48
66524;BME280;53350;52.210;5.160;2023-04-01T07:04:26;99553.84;;;11.84;85.16
66524;BME280;53350;52.210;5.160;2023-04-01T07:06:57;99566.81;;;11.83;84.94
66524;BME280;53350;52.210;5.160;2023-04-01T07:09:27;99566.22;;;11.76;85.61
66524;BME280;53350;52.210;5.160;2023-04-01T07:12:01;99575.59;;;11.79;85.43
66524;BME280;53350;52.210;5.160;2023-04-01T07:14:30;99578.72;;;11.63;85.69
66524;BME280;53350;52.210;5.160;2023-04-01T07:17:01;99567.84;;;11.79;85.25
66524;BME280;53350;52.210;5.160;2023-04-01T07:19:33;99583.78;;;11.89;85.08
66524;BME280;53350;52.210;5.160;2023-04-01T07:22:04;99582.75;;;11.94;84.94
66524;BME280;53350;52.210;5.160;2023-04-01T07:24:34;99586.84;;;12.00;84.62
66524;BME280;53350;52.210;5.160;2023-04-01T07:27:02;99598.66;;;12.06;84.42
66524;BME280;53350;52.210;5.160;2023-04-01T07:29:29;99598.56;;;12.09;84.42
66524;BME280;53350;52.210;5.160;2023-04-01T07:32:22;99601.00;;;12.12;84.55
66524;BME280;53350;52.210;5.160;2023-04-01T07:34:55;99606.09;;;12.13;84.27
66524;BME280;53350;52.210;5.160;2023-04-01T07:37:29;99612.00;;;12.17;84.21
66524;BME280;53350;52.210;5.160;2023-04-01T07:40:05;99609.44;;;12.17;84.08
66524;BME280;53350;52.210;5.160;2023-04-01T07:42:44;99617.75;;;12.24;84.15
66524;BME280;53350;52.210;5.160;2023-04-01T07:45:19;99600.81;;;12.16;84.07
66524;BME280;53350;52.210;5.160;2023-04-01T07:47:59;99617.66;;;12.27;83.67
66524;BME280;53350;52.210;5.160;2023-04-01T07:50:31;99622.16;;;12.22;83.99
66524;BME280;53350;52.210;5.160;2023-04-01T07:53:08;99636.06;;;12.17;84.13
66524;BME280;53350;52.210;5.160;2023-04-01T07:55:42;99631.91;;;12.13;84.52
66524;BME280;53350;52.210;5.160;2023-04-01T07:58:15;99637.75;;;12.18;84.52
66524;BME280;53350;52.210;5.160;2023-04-01T08:00:50;99634.03;;;12.26;84.74
66524;BME280;53350;52.210;5.160;2023-04-01T08:03:31;99646.72;;;12.32;84.31
66524;BME280;53350;52.210;5.160;2023-04-01T08:06:02;99646.59;;;12.35;84.27
66524;BME280;53350;52.210;5.160;2023-04-01T08:08:43;99652.06;;;12.27;84.25
66524;BME280;53350;52.210;5.160;2023-04-01T08:11:22;99660.94;;;12.42;84.22
66524;BME280;53350;52.210;5.160;2023-04-01T08:14:00;99663.41;;;12.45;84.17
66524;BME280;53350;52.210;5.160;2023-04-01T08:16:33;99664.78;;;12.54;84.37
66524;BME280;53350;52.210;5.160;2023-04-01T08:19:09;99671.56;;;12.57;83.95
66524;BME280;53350;52.210;5.160;2023-04-01T08:21:42;99670.69;;;12.58;83.57
66524;BME280;53350;52.210;5.160;2023-04-01T08:24:16;99675.84;;;12.58;83.57
66524;BME280;53350;52.210;5.160;2023-04-01T08:26:45;99675.06;;;12.56;83.68
66524;BME280;53350;52.210;5.160;2023-04-01T08:29:17;99682.03;;;12.53;83.29
66524;BME280;53350;52.210;5.160;2023-04-01T08:31:48;99689.28;;;12.44;83.78
66524;BME280;53350;52.210;5.160;2023-04-01T08:34:20;99693.63;;;12.43;83.66
66524;BME280;53350;52.210;5.160;2023-04-01T08:36:51;99695.97;;;12.49;83.63
66524;BME280;53350;52.210;5.160;2023-04-01T08:39:28;99697.09;;;12.42;83.92
66524;BME280;53350;52.210;5.160;2023-04-01T08:42:19;99691.16;;;12.40;83.61
66524;BME280;53350;52.210;5.160;2023-04-01T08:45:18;99702.06;;;12.47;83.45
66524;BME280;53350;52.210;5.160;2023-04-01T08:48:23;99709.00;;;12.46;84.00
66524;BME280;53350;52.210;5.160;2023-04-01T08:51:39;99719.28;;;12.48;83.83
66524;BME280;53350;52.210;5.160;2023-04-01T08:54:27;99721.19;;;12.43;83.76
66524;BME280;53350;52.210;5.160;2023-04-01T08:57:05;99688.97;;;12.29;83.63
66524;BME280;53350;52.210;5.160;2023-04-01T08:59:45;99722.66;;;12.50;83.75
66524;BME280;53350;52.210;5.160;2023-04-01T09:02:43;99726.78;;;12.54;83.68
66524;BME280;53350;52.210;5.160;2023-04-01T09:05:36;99735.00;;;12.64;83.52
66524;BME280;53350;52.210;5.160;2023-04-01T09:08:18;99737.34;;;12.70;83.43
66524;BME280;53350;52.210;5.160;2023-04-01T09:11:12;99730.28;;;12.75;83.15
66524;BME280;53350;52.210;5.160;2023-04-01T09:17:01;99743.06;;;12.78;83.05
66524;BME280;53350;52.210;5.160;2023-04-01T09:19:47;99744.03;;;12.76;83.17
66524;BME280;53350;52.210;5.160;2023-04-01T09:22:25;99746.50;;;12.79;82.88
66524;BME280;53350;52.210;5.160;2023-04-01T09:25:23;99751.63;;;12.80;83.11
66524;BME280;53350;52.210;5.160;2023-04-01T09:27:56;99754.78;;;12.87;83.09
66524;BME280;53350;52.210;5.160;2023-04-01T09:33:46;99760.81;;;12.87;83.21
66524;BME280;53350;52.210;5.160;2023-04-01T09:36:29;99766.09;;;12.84;83.20
66524;BME280;53350;52.210;5.160;2023-04-01T09:39:06;99771.19;;;12.86;83.18
66524;BME280;53350;52.210;5.160;2023-04-01T09:41:48;99772.06;;;12.86;83.39
66524;BME280;53350;52.210;5.160;2023-04-01T09:44:21;99772.13;;;12.85;83.06
66524;BME280;53350;52.210;5.160;2023-04-01T09:47:04;99775.28;;;12.92;83.18
66524;BME280;53350;52.210;5.160;2023-04-01T09:49:45;99788.34;;;12.88;83.05
66524;BME280;53350;52.210;5.160;2023-04-01T09:52:24;99793.69;;;12.84;83.39
66524;BME280;53350;52.210;5.160;2023-04-01T09:55:04;99788.50;;;12.84;82.97
66524;BME280;53350;52.210;5.160;2023-04-01T09:57:44;99789.34;;;12.84;83.25
66524;BME280;53350;52.210;5.160;2023-04-01T10:06:57;99798.53;;;12.92;82.91
66524;BME280;53350;52.210;5.160;2023-04-01T10:12:51;99811.47;;;12.92;82.65
66524;BME280;53350;52.210;5.160;2023-04-01T10:18:58;99817.25;;;12.98;82.67
66524;BME280;53350;52.210;5.160;2023-04-01T10:21:57;99823.19;;;13.00;83.14
66524;BME280;53350;52.210;5.160;2023-04-01T10:27:46;99824.56;;;13.09;82.60
66524;BME280;53350;52.210;5.160;2023-04-01T10:33:38;99823.50;;;13.15;82.51
66524;BME280;53350;52.210;5.160;2023-04-01T10:36:48;99824.19;;;13.20;82.41
66524;BME280;53350;52.210;5.160;2023-04-01T10:39:32;99831.75;;;13.25;82.46
66524;BME280;53350;52.210;5.160;2023-04-01T10:42:14;99833.25;;;13.30;82.91
66524;BME280;53350;52.210;5.160;2023-04-01T10:45:09;99832.97;;;13.38;82.26
66524;BME280;53350;52.210;5.160;2023-04-01T10:48:08;99839.69;;;13.42;81.74
66524;BME280;53350;52.210;5.160;2023-04-01T10:53:40;99850.94;;;13.41;81.57
66524;BME280;53350;52.210;5.160;2023-04-01T10:56:40;99846.03;;;13.35;81.73
66524;BME280;53350;52.210;5.160;2023-04-01T10:59:35;99854.00;;;13.29;81.41
66524;BME280;53350;52.210;5.160;2023-04-01T11:02:42;99851.28;;;13.32;81.19
66524;BME280;53350;52.210;5.160;2023-04-01T11:05:28;99859.75;;;13.37;81.01
66524;BME280;53350;52.210;5.160;2023-04-01T11:08:48;99859.75;;;13.37;81.23
66524;BME280;53350;52.210;5.160;2023-04-01T11:14:42;99867.97;;;13.47;81.12
66524;BME280;53350;52.210;5.160;2023-04-01T11:17:40;99867.91;;;13.48;81.46
66524;BME280;53350;52.210;5.160;2023-04-01T11:20:35;99875.56;;;13.51;81.90
66524;BME280;53350;52.210;5.160;2023-04-01T11:23:17;99868.44;;;13.56;80.75
66524;BME280;53350;52.210;5.160;2023-04-01T11:26:01;99877.06;;;13.57;80.73
66524;BME280;53350;52.210;5.160;2023-04-01T11:31:47;99876.34;;;13.53;81.08
66524;BME280;53350;52.210;5.160;2023-04-01T11:34:31;99887.91;;;13.45;81.06
66524;BME280;53350;52.210;5.160;2023-04-01T11:37:09;99888.97;;;13.39;81.27
66524;BME280;53350;52.210;5.160;2023-04-01T11:39:51;99889.19;;;13.33;81.42
66524;BME280;53350;52.210;5.160;2023-04-01T11:42:26;99904.50;;;13.39;81.34
66524;BME280;53350;52.210;5.160;2023-04-01T11:45:00;99891.69;;;13.36;81.18
66524;BME280;53350;52.210;5.160;2023-04-01T11:50:50;99909.66;;;13.39;81.28
66524;BME280;53350;52.210;5.160;2023-04-01T11:53:27;99921.84;;;13.37;81.21
66524;BME280;53350;52.210;5.160;2023-04-01T11:56:07;99923.72;;;13.32;81.10
66524;BME280;53350;52.210;5.160;2023-04-01T11:58:56;99927.06;;;13.35;81.18
66524;BME280;53350;52.210;5.160;2023-04-01T12:01:30;99919.19;;;13.38;80.27
66524;BME280;53350;52.210;5.160;2023-04-01T12:07:12;99939.88;;;13.38;80.79
66524;BME280;53350;52.210;5.160;2023-04-01T12:09:49;99936.31;;;13.41;80.73
66524;BME280;53350;52.210;5.160;2023-04-01T12:12:25;99936.63;;;13.32;80.92
66524;BME280;53350;52.210;5.160;2023-04-01T12:15:05;99939.88;;;13.38;81.19
66524;BME280;53350;52.210;5.160;2023-04-01T12:17:43;99948.41;;;13.41;81.10
66524;BME280;53350;52.210;5.160;2023-04-01T12:20:30;99951.81;;;13.41;81.02
66524;BME280;53350;52.210;5.160;2023-04-01T12:23:12;99960.81;;;13.31;81.20
66524;BME280;53350;52.210;5.160;2023-04-01T12:28:59;99962.56;;;13.30;80.67
66524;BME280;53350;52.210;5.160;2023-04-01T12:31:38;99970.44;;;13.27;80.62
66524;BME280;53350;52.210;5.160;2023-04-01T12:34:35;99972.97;;;13.29;80.93
66524;BME280;53350;52.210;5.160;2023-04-01T12:37:08;99975.72;;;13.24;81.22
66524;BME280;53350;52.210;5.160;2023-04-01T12:40:02;99949.72;;;13.05;81.79
66524;BME280;53350;52.210;5.160;2023-04-01T12:42:43;99984.44;;;13.21;81.73
66524;BME280;53350;52.210;5.160;2023-04-01T12:45:33;99984.31;;;13.25;81.72
66524;BME280;53350;52.210;5.160;2023-04-01T12:48:31;99986.66;;;13.31;81.92
66524;BME280;53350;52.210;5.160;2023-04-01T12:51:17;99988.28;;;13.35;82.07
66524;BME280;53350;52.210;5.160;2023-04-01T12:56:48;99990.25;;;13.52;82.20
66524;BME280;53350;52.210;5.160;2023-04-01T12:59:42;99991.50;;;13.64;81.86
66524;BME280;53350;52.210;5.160;2023-04-01T13:02:20;99995.66;;;13.68;82.07
66524;BME280;53350;52.210;5.160;2023-04-01T13:05:09;100004.19;;;13.70;81.15
66524;BME280;53350;52.210;5.160;2023-04-01T13:07:57;100012.69;;;13.73;80.46
66524;BME280;53350;52.210;5.160;2023-04-01T13:10:35;100010.34;;;13.67;80.06
66524;BME280;53350;52.210;5.160;2023-04-01T13:13:19;100010.81;;;13.55;80.08
66524;BME280;53350;52.210;5.160;2023-04-01T13:15:52;100026.41;;;13.53;80.16
66524;BME280;53350;52.210;5.160;2023-04-01T13:18:29;100031.06;;;13.44;80.48
66524;BME280;53350;52.210;5.160;2023-04-01T13:21:05;100033.13;;;13.35;80.57
66524;BME280;53350;52.210;5.160;2023-04-01T13:23:43;100044.63;;;13.27;80.99
66524;BME280;53350;52.210;5.160;2023-04-01T13:26:18;100055.84;;;13.26;80.96
66524;BME280;53350;52.210;5.160;2023-04-01T13:28:56;100050.78;;;13.22;80.99
66524;BME280;53350;52.210;5.160;2023-04-01T13:31:42;100032.50;;;13.03;81.12
66524;BME280;53350;52.210;5.160;2023-04-01T13:34:24;100039.41;;;13.03;81.83
66524;BME280;53350;52.210;5.160;2023-04-01T13:37:03;100054.34;;;12.95;82.24
66524;BME280;53350;52.210;5.160;2023-04-01T13:39:48;100051.38;;;13.05;81.35
66524;BME280;53350;52.210;5.160;2023-04-01T13:42:21;100057.44;;;13.04;81.76
66524;BME280;53350;52.210;5.160;2023-04-01T13:44:56;100068.06;;;12.97;81.89
66524;BME280;53350;52.210;5.160;2023-04-01T13:47:49;100063.78;;;12.96;81.87
66524;BME280;53350;52.210;5.160;2023-04-01T13:50:28;100071.28;;;12.78;82.29
66524;BME280;53350;52.210;5.160;2023-04-01T13:56:08;100077.38;;;12.76;82.04
66524;BME280;53350;52.210;5.160;2023-04-01T13:58:49;100072.25;;;12.74;82.38
66524;BME280;53350;52.210;5.160;2023-04-01T14:01:25;100081.38;;;12.59;82.83
66524;BME280;53350;52.210;5.160;2023-04-01T14:04:27;100084.84;;;12.58;83.07
66524;BME280;53350;52.210;5.160;2023-04-01T14:07:10;100080.09;;;12.46;83.44
66524;BME280;53350;52.210;5.160;2023-04-01T14:10:06;100096.13;;;12.56;83.20
66524;BME280;53350;52.210;5.160;2023-04-01T14:12:40;100098.69;;;12.57;83.13
66524;BME280;53350;52.210;5.160;2023-04-01T14:15:22;100099.34;;;12.62;83.35
66524;BME280;53350;52.210;5.160;2023-04-01T14:18:07;100107.94;;;12.63;83.24
66524;BME280;53350;52.210;5.160;2023-04-01T14:20:39;100101.28;;;12.56;83.86
66524;BME280;53350;52.210;5.160;2023-04-01T14:23:29;100111.59;;;12.57;83.83
66524;BME280;53350;52.210;5.160;2023-04-01T14:26:34;100120.06;;;12.61;83.40
66524;BME280;53350;52.210;5.160;2023-04-01T14:29:10;100114.09;;;12.60;83.10
66524;BME280;53350;52.210;5.160;2023-04-01T14:31:44;100127.88;;;12.59;82.97
66524;BME280;53350;52.210;5.160;2023-04-01T14:34:29;100145.31;;;12.52;83.09
66524;BME280;53350;52.210;5.160;2023-04-01T14:37:25;100137.50;;;12.54;82.88
66524;BME280;53350;52.210;5.160;2023-04-01T14:40:05;100142.50;;;12.60;82.89